Time,TemperatureF,DewpointF,PressureIn,WindDirection,WindDirectionDegrees,WindSpeedMPH,WindSpeedGustMPH,Humidity,HourlyPrecipIn,Conditions,Clouds,dailyrainin,SoftwareType,DateUTC
2013-06-01 00:00:00,71.8,65.7,29.87,SSE,168,2.0,9.0,81,0.00,,---,0.56,VWS V14.01,2013-06-01 04:00:00,
2013-06-01 00:01:00,71.8,65.7,29.87,SSE,159,2.0,2.0,81,0.00,,---,0.00,VWS V14.01,2013-06-01 04:01:00,
2013-06-01 00:06:00,71.8,65.7,29.86,SSE,165,5.0,11.0,81,0.00,,---,0.00,VWS V14.01,2013-06-01 04:06:00,
2013-06-01 00:11:00,71.8,66.0,29.86,South,171,6.0,11.0,82,0.00,,---,0.00,VWS V14.01,2013-06-01 04:11:00,
2013-06-01 00:16:00,71.8,66.0,29.86,SSE,168,2.0,11.0,82,0.00,,---,0.00,VWS V14.01,2013-06-01 04:16:00,
2013-06-01 00:21:00,71.8,66.0,29.87,South,186,2.0,11.0,82,0.00,,---,0.00,VWS V14.01,2013-06-01 04:21:00,
2013-06-01 00:26:00,71.8,66.0,29.87,SSE,166,8.0,11.0,82,0.00,,---,0.00,VWS V14.01,2013-06-01 04:26:00,
2013-06-01 00:30:00,71.8,66.0,29.87,South,170,8.0,11.0,82,0.00,,---,0.00,VWS V14.01,2013-06-01 04:30:00,
2013-06-01 00:31:00,71.8,66.0,29.87,SSE,161,3.0,13.0,82,0.00,,---,0.00,VWS V14.01,2013-06-01 04:31:00,
2013-06-01 00:36:00,71.8,66.0,29.87,SSE,164,5.0,13.0,82,0.00,,---,0.00,VWS V14.01,2013-06-01 04:36:00,
2013-06-01 00:41:00,71.8,66.0,29.87,SSE,157,5.0,13.0,82,0.00,,---,0.00,VWS V14.01,2013-06-01 04:41:00,
2013-06-01 00:46:00,72.0,66.2,29.87,South,172,4.0,13.0,82,0.00,,---,0.00,VWS V14.01,2013-06-01 04:46:00,
2013-06-01 00:51:00,72.0,66.2,29.86,SSE,149,8.0,13.0,82,0.00,,---,0.00,VWS V14.01,2013-06-01 04:51:00,
2013-06-01 00:56:00,72.0,66.2,29.86,SSE,148,8.0,13.0,82,0.00,,---,0.00,VWS V14.01,2013-06-01 04:56:00,
2013-06-01 01:00:00,71.8,66.0,29.86,South,169,3.0,13.0,82,0.00,,---,0.00,VWS V14.01,2013-06-01 05:00:00,
2013-06-01 01:01:00,71.8,66.0,29.86,SSE,158,7.0,7.0,82,0.00,,---,0.00,VWS V14.01,2013-06-01 05:01:00,
2013-06-01 01:06:00,72.0,66.2,29.86,SSE,164,7.0,13.0,82,0.00,,---,0.00,VWS V14.01,2013-06-01 05:06:00,
2013-06-01 01:11:00,72.0,66.2,29.86,SSE,164,3.0,13.0,82,0.00,,---,0.00,VWS V14.01,2013-06-01 05:11:00,
2013-06-01 01:16:00,72.0,66.2,29.86,South,172,11.0,13.0,82,0.00,,---,0.00,VWS V14.01,2013-06-01 05:16:00,
2013-06-01 01:21:00,72.0,66.2,29.85,SSE,162,6.0,13.0,82,0.00,,---,0.00,VWS V14.01,2013-06-01 05:21:00,
2013-06-01 01:26:00,72.1,65.9,29.85,SSE,163,4.0,13.0,81,0.00,,---,0.00,VWS V14.01,2013-06-01 05:26:00,
2013-06-01 01:30:00,72.1,65.9,29.86,South,169,4.0,13.0,81,0.00,,---,0.00,VWS V14.01,2013-06-01 05:30:00,
2013-06-01 01:31:00,72.3,66.2,29.86,SSE,161,5.0,8.0,81,0.00,,---,0.00,VWS V14.01,2013-06-01 05:31:00,
2013-06-01 01:36:00,72.3,66.2,29.86,SSE,168,5.0,8.0,81,0.00,,---,0.00,VWS V14.01,2013-06-01 05:36:00,
2013-06-01 01:41:00,72.3,65.8,29.85,SSW,196,4.0,11.0,80,0.00,,---,0.00,VWS V14.01,2013-06-01 05:41:00,
2013-06-01 01:46:00,72.3,65.8,29.85,South,169,1.0,11.0,80,0.00,,---,0.00,VWS V14.01,2013-06-01 05:46:00,
2013-06-01 01:51:00,72.3,65.8,29.85,SSW,205,3.0,11.0,80,0.00,,---,0.00,VWS V14.01,2013-06-01 05:51:00,
2013-06-01 01:56:00,72.3,65.8,29.85,South,174,3.0,11.0,80,0.00,,---,0.00,VWS V14.01,2013-06-01 05:56:00,
2013-06-01 02:00:00,72.3,65.8,29.84,South,180,11.0,13.0,80,0.00,,---,0.00,VWS V14.01,2013-06-01 06:00:00,
2013-06-01 02:01:00,72.3,65.8,29.84,SSE,165,3.0,11.0,80,0.00,,---,0.00,VWS V14.01,2013-06-01 06:01:00,
2013-06-01 02:06:00,72.5,65.6,29.84,South,180,0.0,11.0,79,0.00,,---,0.00,VWS V14.01,2013-06-01 06:06:00,
2013-06-01 02:11:00,72.5,65.6,29.84,SSE,165,4.0,11.0,79,0.00,,---,0.00,VWS V14.01,2013-06-01 06:11:00,
2013-06-01 02:16:00,72.5,65.6,29.84,SSE,161,5.0,11.0,79,0.00,,---,0.00,VWS V14.01,2013-06-01 06:16:00,
2013-06-01 02:21:00,72.5,65.6,29.84,South,171,1.0,11.0,79,0.00,,---,0.00,VWS V14.01,2013-06-01 06:21:00,
2013-06-01 02:26:00,72.5,65.3,29.84,SSE,165,0.0,11.0,78,0.00,,---,0.00,VWS V14.01,2013-06-01 06:26:00,
2013-06-01 02:30:00,72.5,65.3,29.84,South,183,2.0,11.0,78,0.00,,---,0.00,VWS V14.01,2013-06-01 06:30:00,
2013-06-01 02:31:00,72.5,65.3,29.84,SW,224,5.0,5.0,78,0.00,,---,0.00,VWS V14.01,2013-06-01 06:31:00,
2013-06-01 02:36:00,72.7,65.4,29.84,SW,222,6.0,8.0,78,0.00,,---,0.00,VWS V14.01,2013-06-01 06:36:00,
2013-06-01 02:41:00,72.7,65.4,29.84,SW,215,5.0,9.0,78,0.00,,---,0.00,VWS V14.01,2013-06-01 06:41:00,
2013-06-01 02:46:00,72.8,65.2,29.84,SSE,165,4.0,9.0,77,0.00,,---,0.00,VWS V14.01,2013-06-01 06:46:00,
2013-06-01 02:51:00,72.8,65.2,29.83,ESE,119,7.0,9.0,77,0.00,,---,0.00,VWS V14.01,2013-06-01 06:51:00,
2013-06-01 02:56:00,73.0,65.0,29.82,SSE,163,5.0,9.0,76,0.00,,---,0.00,VWS V14.01,2013-06-01 06:56:00,
2013-06-01 03:00:00,73.2,64.8,29.82,SSE,153,8.0,9.0,75,0.00,,---,0.00,VWS V14.01,2013-06-01 07:00:00,
2013-06-01 03:01:00,73.2,64.8,29.82,South,184,6.0,12.0,75,0.00,,---,0.00,VWS V14.01,2013-06-01 07:01:00,
2013-06-01 03:06:00,73.2,64.8,29.82,SSW,196,9.0,13.0,75,0.00,,---,0.00,VWS V14.01,2013-06-01 07:06:00,
2013-06-01 03:11:00,73.2,64.4,29.82,SSE,153,2.0,13.0,74,0.00,,---,0.00,VWS V14.01,2013-06-01 07:11:00,
2013-06-01 03:16:00,73.2,64.4,29.82,ESE,109,7.0,13.0,74,0.00,,---,0.00,VWS V14.01,2013-06-01 07:16:00,
2013-06-01 03:21:00,73.3,64.1,29.81,SSE,165,7.0,13.0,73,0.00,,---,0.00,VWS V14.01,2013-06-01 07:21:00,
2013-06-01 03:26:00,73.5,64.3,29.81,SSE,167,4.0,13.0,73,0.00,,---,0.00,VWS V14.01,2013-06-01 07:26:00,
2013-06-01 03:30:00,73.7,64.1,29.81,South,178,4.0,13.0,72,0.00,,---,0.00,VWS V14.01,2013-06-01 07:30:00,
2013-06-01 03:31:00,73.7,64.1,29.81,SSE,163,4.0,8.0,72,0.00,,---,0.00,VWS V14.01,2013-06-01 07:31:00,
2013-06-01 03:36:00,73.7,63.7,29.80,SE,137,5.0,8.0,71,0.00,,---,0.00,VWS V14.01,2013-06-01 07:36:00,
2013-06-01 03:41:00,73.7,63.7,29.80,South,181,3.0,9.0,71,0.00,,---,0.00,VWS V14.01,2013-06-01 07:41:00,
2013-06-01 03:46:00,73.7,63.7,29.79,SW,217,10.0,12.0,71,0.00,,---,0.00,VWS V14.01,2013-06-01 07:46:00,
2013-06-01 03:51:00,73.9,63.9,29.79,South,179,2.0,12.0,71,0.00,,---,0.00,VWS V14.01,2013-06-01 07:51:00,
2013-06-01 03:56:00,73.9,63.5,29.78,SSE,161,13.0,15.0,70,0.00,,---,0.00,VWS V14.01,2013-06-01 07:56:00,
2013-06-01 04:00:00,73.9,63.5,29.78,South,183,6.0,15.0,70,0.00,,---,0.00,VWS V14.01,2013-06-01 08:00:00,
2013-06-01 04:01:00,73.9,63.1,29.78,SSE,163,4.0,6.0,69,0.00,,---,0.00,VWS V14.01,2013-06-01 08:01:00,
2013-06-01 04:06:00,73.9,63.5,29.78,South,172,3.0,9.0,70,0.00,,---,0.00,VWS V14.01,2013-06-01 08:06:00,
2013-06-01 04:11:00,73.7,63.7,29.79,SSE,163,5.0,10.0,71,0.00,,---,0.00,VWS V14.01,2013-06-01 08:11:00,
2013-06-01 04:16:00,73.7,63.3,29.79,South,178,2.0,10.0,70,0.00,,---,0.00,VWS V14.01,2013-06-01 08:16:00,
2013-06-01 04:21:00,73.7,63.3,29.79,South,191,2.0,10.0,70,0.00,,---,0.00,VWS V14.01,2013-06-01 08:21:00,
2013-06-01 04:26:00,73.5,61.9,29.82,WSW,238,18.0,28.0,67,0.01,,---,0.01,VWS V14.01,2013-06-01 08:26:00,
2013-06-01 04:30:00,70.9,59.0,29.83,NW,304,12.0,30.0,66,0.01,,---,0.01,VWS V14.01,2013-06-01 08:30:00,
2013-06-01 04:31:00,70.6,59.1,29.84,West,279,16.0,18.0,67,0.01,,---,0.01,VWS V14.01,2013-06-01 08:31:00,
2013-06-01 04:36:00,67.8,60.0,29.83,WNW,295,9.0,31.0,76,0.06,,---,0.06,VWS V14.01,2013-06-01 08:36:00,
2013-06-01 04:41:00,66.1,60.5,29.84,NW,325,6.0,31.0,82,0.08,,---,0.08,VWS V14.01,2013-06-01 08:41:00,
2013-06-01 04:46:00,65.5,60.5,29.84,NNW,342,9.0,31.0,84,0.09,,---,0.09,VWS V14.01,2013-06-01 08:46:00,
2013-06-01 04:51:00,65.3,60.7,29.85,WNW,297,12.0,31.0,85,0.11,,---,0.11,VWS V14.01,2013-06-01 08:51:00,
2013-06-01 04:56:00,65.0,60.7,29.85,WNW,294,4.0,31.0,86,0.12,,---,0.12,VWS V14.01,2013-06-01 08:56:00,
2013-06-01 05:00:00,64.8,60.2,29.85,WNW,301,3.0,31.0,85,0.12,,---,0.12,VWS V14.01,2013-06-01 09:00:00,
2013-06-01 05:01:00,64.8,60.8,29.85,WNW,300,4.0,5.0,87,0.12,,---,0.12,VWS V14.01,2013-06-01 09:01:00,
2013-06-01 05:06:00,64.8,60.8,29.83,NW,319,6.0,7.0,87,0.13,,---,0.13,VWS V14.01,2013-06-01 09:06:00,
2013-06-01 05:11:00,64.7,60.8,29.83,WNW,291,8.0,8.0,87,0.15,,---,0.15,VWS V14.01,2013-06-01 09:11:00,
2013-06-01 05:16:00,64.5,60.9,29.83,WNW,288,1.0,8.0,88,0.16,,---,0.16,VWS V14.01,2013-06-01 09:16:00,
2013-06-01 05:21:00,64.5,60.9,29.84,WNW,292,1.0,8.0,88,0.16,,---,0.16,VWS V14.01,2013-06-01 09:21:00,
2013-06-01 05:26:00,64.5,60.9,29.83,WNW,284,4.0,8.0,88,0.16,,---,0.16,VWS V14.01,2013-06-01 09:26:00,
2013-06-01 05:30:00,64.3,61.0,29.83,NW,317,0.0,8.0,89,0.16,,---,0.16,VWS V14.01,2013-06-01 09:30:00,
2013-06-01 05:31:00,64.3,61.0,29.83,NNW,342,4.0,4.0,89,0.15,,---,0.16,VWS V14.01,2013-06-01 09:31:00,
2013-06-01 05:36:00,64.3,61.0,29.84,WNW,293,0.0,4.0,89,0.16,,---,0.17,VWS V14.01,2013-06-01 09:36:00,
2013-06-01 05:41:00,64.3,61.0,29.84,WNW,298,0.0,4.0,89,0.16,,---,0.17,VWS V14.01,2013-06-01 09:41:00,
2013-06-01 05:46:00,64.3,61.0,29.84,WNW,292,0.0,4.0,89,0.16,,---,0.17,VWS V14.01,2013-06-01 09:46:00,
2013-06-01 05:51:00,64.5,61.2,29.84,WNW,288,0.0,4.0,89,0.16,,---,0.17,VWS V14.01,2013-06-01 09:51:00,
2013-06-01 05:56:00,64.5,61.2,29.84,WNW,290,1.0,4.0,89,0.16,,---,0.17,VWS V14.01,2013-06-01 09:56:00,
2013-06-01 06:00:00,64.3,61.0,29.84,WNW,299,1.0,4.0,89,0.16,,---,0.17,VWS V14.01,2013-06-01 10:00:00,
2013-06-01 06:01:00,64.3,61.0,29.84,WNW,299,0.0,1.0,89,0.05,,---,0.17,VWS V14.01,2013-06-01 10:01:00,
2013-06-01 06:06:00,64.3,61.3,29.84,WNW,299,0.0,3.0,90,0.05,,---,0.17,VWS V14.01,2013-06-01 10:06:00,
2013-06-01 06:11:00,64.3,61.3,29.84,WNW,299,0.0,3.0,90,0.05,,---,0.17,VWS V14.01,2013-06-01 10:11:00,
2013-06-01 06:16:00,64.3,61.3,29.84,WNW,299,0.0,3.0,90,0.06,,---,0.18,VWS V14.01,2013-06-01 10:16:00,
2013-06-01 06:21:00,64.3,61.3,29.85,WNW,299,0.0,3.0,90,0.06,,---,0.18,VWS V14.01,2013-06-01 10:21:00,
2013-06-01 06:26:00,64.3,61.3,29.85,WNW,299,1.0,3.0,90,0.06,,---,0.18,VWS V14.01,2013-06-01 10:26:00,
2013-06-01 06:30:00,64.3,61.3,29.85,WNW,299,2.0,3.0,90,0.06,,---,0.18,VWS V14.01,2013-06-01 10:30:00,
2013-06-01 06:31:00,64.3,61.3,29.85,WNW,299,0.0,2.0,90,0.02,,---,0.18,VWS V14.01,2013-06-01 10:31:00,
2013-06-01 06:36:00,64.3,61.3,29.86,WNW,299,1.0,2.0,90,0.02,,---,0.18,VWS V14.01,2013-06-01 10:36:00,
2013-06-01 06:41:00,64.3,61.3,29.85,WNW,299,0.0,2.0,90,0.03,,---,0.19,VWS V14.01,2013-06-01 10:41:00,
2013-06-01 06:46:00,64.5,61.5,29.85,WNW,299,0.0,2.0,90,0.03,,---,0.19,VWS V14.01,2013-06-01 10:46:00,
2013-06-01 06:51:00,64.5,61.8,29.85,WNW,299,1.0,2.0,91,0.03,,---,0.19,VWS V14.01,2013-06-01 10:51:00,
2013-06-01 06:56:00,64.5,61.8,29.85,WNW,299,2.0,2.0,91,0.03,,---,0.19,VWS V14.01,2013-06-01 10:56:00,
2013-06-01 07:00:00,64.5,61.8,29.85,SSE,166,2.0,3.0,91,0.03,,---,0.19,VWS V14.01,2013-06-01 11:00:00,
2013-06-01 07:01:00,64.5,61.8,29.85,SSE,160,2.0,3.0,91,0.02,,---,0.19,VWS V14.01,2013-06-01 11:01:00,
2013-06-01 07:06:00,64.7,62.0,29.85,SE,136,3.0,4.0,91,0.02,,---,0.19,VWS V14.01,2013-06-01 11:06:00,
2013-06-01 07:11:00,64.7,62.0,29.86,SE,144,3.0,4.0,91,0.02,,---,0.19,VWS V14.01,2013-06-01 11:11:00,
2013-06-01 07:16:00,64.8,62.1,29.85,SE,142,4.0,7.0,91,0.02,,---,0.19,VWS V14.01,2013-06-01 11:16:00,
2013-06-01 07:21:00,64.8,62.1,29.85,SE,140,7.0,8.0,91,0.03,,---,0.20,VWS V14.01,2013-06-01 11:21:00,
2013-06-01 07:26:00,64.8,62.1,29.85,SSE,149,3.0,8.0,91,0.03,,---,0.20,VWS V14.01,2013-06-01 11:26:00,
2013-06-01 07:30:00,64.8,62.1,29.85,SSE,150,3.0,8.0,91,0.03,,---,0.20,VWS V14.01,2013-06-01 11:30:00,
2013-06-01 07:31:00,64.8,62.4,29.85,SSE,150,4.0,4.0,92,0.02,,---,0.20,VWS V14.01,2013-06-01 11:31:00,
2013-06-01 07:36:00,64.8,62.4,29.84,SE,138,4.0,7.0,92,0.02,,---,0.20,VWS V14.01,2013-06-01 11:36:00,
2013-06-01 07:41:00,64.8,62.4,29.84,SE,128,8.0,10.0,92,0.03,,---,0.21,VWS V14.01,2013-06-01 11:41:00,
2013-06-01 07:46:00,64.7,62.3,29.84,SE,124,5.0,10.0,92,0.03,,---,0.21,VWS V14.01,2013-06-01 11:46:00,
2013-06-01 07:51:00,64.7,62.3,29.84,SE,139,5.0,10.0,92,0.03,,---,0.21,VWS V14.01,2013-06-01 11:51:00,
2013-06-01 07:56:00,64.7,62.3,29.84,SE,134,4.0,10.0,92,0.03,,---,0.21,VWS V14.01,2013-06-01 11:56:00,
2013-06-01 08:00:00,64.5,62.1,29.84,SSE,153,2.0,11.0,92,0.03,,---,0.21,VWS V14.01,2013-06-01 12:00:00,
2013-06-01 08:01:00,64.5,62.1,29.85,SSE,153,0.0,2.0,92,0.02,,---,0.21,VWS V14.01,2013-06-01 12:01:00,
2013-06-01 08:06:00,64.5,62.1,29.84,SE,126,7.0,8.0,92,0.02,,---,0.21,VWS V14.01,2013-06-01 12:06:00,
2013-06-01 08:11:00,64.5,62.1,29.85,SSE,167,1.0,8.0,92,0.02,,---,0.21,VWS V14.01,2013-06-01 12:11:00,
2013-06-01 08:16:00,64.5,62.1,29.84,SE,145,5.0,9.0,92,0.03,,---,0.22,VWS V14.01,2013-06-01 12:16:00,
2013-06-01 08:21:00,64.7,62.3,29.84,SSE,155,4.0,9.0,92,0.03,,---,0.22,VWS V14.01,2013-06-01 12:21:00,
2013-06-01 08:26:00,64.5,62.1,29.85,SSE,161,3.0,9.0,92,0.03,,---,0.22,VWS V14.01,2013-06-01 12:26:00,
2013-06-01 08:30:00,64.7,62.3,29.85,SSE,153,2.0,9.0,92,0.03,,---,0.22,VWS V14.01,2013-06-01 12:30:00,
2013-06-01 08:31:00,64.7,62.3,29.85,SSE,149,1.0,3.0,92,0.02,,---,0.22,VWS V14.01,2013-06-01 12:31:00,
2013-06-01 08:36:00,64.8,62.4,29.85,South,189,0.0,7.0,92,0.03,,---,0.23,VWS V14.01,2013-06-01 12:36:00,
2013-06-01 08:41:00,64.8,62.4,29.85,South,169,1.0,7.0,92,0.03,,---,0.23,VWS V14.01,2013-06-01 12:41:00,
2013-06-01 08:46:00,64.8,62.4,29.84,SE,142,4.0,8.0,92,0.03,,---,0.23,VWS V14.01,2013-06-01 12:46:00,
2013-06-01 08:51:00,65.0,62.6,29.84,SE,136,6.0,8.0,92,0.03,,---,0.23,VWS V14.01,2013-06-01 12:51:00,
2013-06-01 08:56:00,65.0,62.9,29.83,SE,135,5.0,10.0,93,0.03,,---,0.23,VWS V14.01,2013-06-01 12:56:00,
2013-06-01 09:00:00,65.0,62.9,29.83,SE,132,3.0,10.0,93,0.03,,---,0.23,VWS V14.01,2013-06-01 13:00:00,
2013-06-01 09:01:00,65.0,62.9,29.83,SE,143,7.0,8.0,93,0.02,,---,0.23,VWS V14.01,2013-06-01 13:01:00,
2013-06-01 09:06:00,65.0,62.9,29.83,SE,142,8.0,9.0,93,0.02,,---,0.23,VWS V14.01,2013-06-01 13:06:00,
2013-06-01 09:11:00,65.0,62.9,29.83,SSE,153,5.0,10.0,93,0.02,,---,0.23,VWS V14.01,2013-06-01 13:11:00,
2013-06-01 09:16:00,65.0,62.9,29.83,SE,138,7.0,11.0,93,0.02,,---,0.23,VWS V14.01,2013-06-01 13:16:00,
2013-06-01 09:21:00,65.0,62.9,29.83,SE,140,5.0,11.0,93,0.02,,---,0.23,VWS V14.01,2013-06-01 13:21:00,
2013-06-01 09:26:00,65.0,62.9,29.83,SSE,148,3.0,11.0,93,0.02,,---,0.23,VWS V14.01,2013-06-01 13:26:00,
2013-06-01 09:30:00,65.0,62.9,29.83,South,169,3.0,11.0,93,0.02,,---,0.23,VWS V14.01,2013-06-01 13:30:00,
2013-06-01 09:31:00,65.0,62.9,29.83,SE,135,5.0,9.0,93,0.01,,---,0.23,VWS V14.01,2013-06-01 13:31:00,
2013-06-01 09:36:00,65.0,62.9,29.84,South,175,5.0,9.0,93,0.01,,---,0.23,VWS V14.01,2013-06-01 13:36:00,
2013-06-01 09:41:00,65.0,62.9,29.85,SSE,165,4.0,9.0,93,0.01,,---,0.23,VWS V14.01,2013-06-01 13:41:00,
2013-06-01 09:46:00,65.0,62.9,29.86,South,173,2.0,9.0,93,0.01,,---,0.23,VWS V14.01,2013-06-01 13:46:00,
2013-06-01 09:51:00,65.0,62.9,29.86,SSW,205,4.0,9.0,93,0.01,,---,0.23,VWS V14.01,2013-06-01 13:51:00,
2013-06-01 09:56:00,65.2,62.8,29.86,SSW,208,5.0,9.0,92,0.01,,---,0.23,VWS V14.01,2013-06-01 13:56:00,
2013-06-01 10:00:00,65.2,63.1,29.85,SSW,201,1.0,9.0,93,0.01,,---,0.23,VWS V14.01,2013-06-01 14:00:00,
2013-06-01 10:01:00,65.2,63.1,29.85,South,173,2.0,5.0,93,0.00,,---,0.23,VWS V14.01,2013-06-01 14:01:00,
2013-06-01 10:06:00,65.2,62.8,29.85,SSE,163,5.0,9.0,92,0.00,,---,0.23,VWS V14.01,2013-06-01 14:06:00,
2013-06-01 10:11:00,65.3,62.9,29.85,SSW,212,5.0,9.0,92,0.00,,---,0.23,VWS V14.01,2013-06-01 14:11:00,
2013-06-01 10:16:00,65.5,63.1,29.85,SSW,207,4.0,10.0,92,0.00,,---,0.23,VWS V14.01,2013-06-01 14:16:00,
2013-06-01 10:21:00,65.6,63.5,29.85,South,182,2.0,10.0,93,0.00,,---,0.23,VWS V14.01,2013-06-01 14:21:00,
2013-06-01 10:26:00,65.8,63.4,29.85,SSW,204,3.0,10.0,92,0.00,,---,0.23,VWS V14.01,2013-06-01 14:26:00,
2013-06-01 10:30:00,65.5,63.1,29.85,South,172,5.0,12.0,92,0.00,,---,0.23,VWS V14.01,2013-06-01 14:30:00,
2013-06-01 10:31:00,65.5,63.1,29.85,SSE,155,5.0,7.0,92,0.00,,---,0.23,VWS V14.01,2013-06-01 14:31:00,
2013-06-01 10:36:00,65.8,63.4,29.85,SSW,198,5.0,10.0,92,0.00,,---,0.23,VWS V14.01,2013-06-01 14:36:00,
2013-06-01 10:41:00,65.6,63.2,29.85,SSW,197,0.0,10.0,92,0.00,,---,0.23,VWS V14.01,2013-06-01 14:41:00,
2013-06-01 10:46:00,66.1,63.7,29.85,SSW,209,6.0,10.0,92,0.00,,---,0.23,VWS V14.01,2013-06-01 14:46:00,
2013-06-01 10:51:00,66.1,63.4,29.84,SSE,164,3.0,15.0,91,0.00,,---,0.23,VWS V14.01,2013-06-01 14:51:00,
2013-06-01 10:56:00,66.4,63.4,29.84,SW,220,8.0,15.0,90,0.00,,---,0.23,VWS V14.01,2013-06-01 14:56:00,
2013-06-01 11:04:00,66.9,63.2,29.84,South,175,7.0,7.0,88,0.00,,---,0.23,VWS V14.01,2013-06-01 15:04:00,
2013-06-01 11:09:00,66.9,62.9,29.84,South,173,8.0,14.0,87,0.00,,---,0.23,VWS V14.01,2013-06-01 15:09:00,
2013-06-01 11:14:00,66.8,62.2,29.83,South,171,10.0,15.0,85,0.00,,---,0.23,VWS V14.01,2013-06-01 15:14:00,
2013-06-01 11:19:00,66.9,61.9,29.84,SSE,157,5.0,17.0,84,0.00,,---,0.23,VWS V14.01,2013-06-01 15:19:00,
2013-06-01 11:24:00,67.1,61.8,29.85,South,184,7.0,17.0,83,0.00,,---,0.23,VWS V14.01,2013-06-01 15:24:00,
2013-06-01 11:29:00,67.3,61.3,29.84,South,180,10.0,17.0,81,0.00,,---,0.23,VWS V14.01,2013-06-01 15:29:00,
2013-06-01 11:34:00,67.4,61.0,29.85,South,182,11.0,11.0,80,0.00,,---,0.23,VWS V14.01,2013-06-01 15:34:00,
2013-06-01 11:39:00,67.6,60.5,29.85,South,178,4.0,14.0,78,0.00,,---,0.23,VWS V14.01,2013-06-01 15:39:00,
2013-06-01 11:44:00,67.8,60.3,29.85,SW,218,8.0,17.0,77,0.00,,---,0.23,VWS V14.01,2013-06-01 15:44:00,
2013-06-01 11:49:00,68.1,61.0,29.85,SSW,192,9.0,17.0,78,0.00,,---,0.23,VWS V14.01,2013-06-01 15:49:00,
2013-06-01 11:54:00,68.4,61.3,29.85,SSE,163,4.0,17.0,78,0.00,,---,0.23,VWS V14.01,2013-06-01 15:54:00,
2013-06-01 11:59:00,68.6,61.1,29.85,South,170,7.0,17.0,77,0.00,,---,0.23,VWS V14.01,2013-06-01 15:59:00,
2013-06-01 12:04:00,68.3,60.5,29.85,South,186,8.0,17.0,76,0.00,,---,0.23,VWS V14.01,2013-06-01 16:04:00,
2013-06-01 12:09:00,68.4,60.5,29.85,SW,232,3.0,17.0,76,0.00,,---,0.23,VWS V14.01,2013-06-01 16:09:00,
2013-06-01 12:14:00,68.6,60.7,29.85,SW,219,8.0,17.0,76,0.00,,---,0.23,VWS V14.01,2013-06-01 16:14:00,
2013-06-01 12:19:00,68.9,60.7,29.85,WSW,246,7.0,17.0,75,0.00,,---,0.23,VWS V14.01,2013-06-01 16:19:00,
2013-06-01 12:24:00,68.9,60.3,29.85,SW,219,6.0,17.0,74,0.00,,---,0.23,VWS V14.01,2013-06-01 16:24:00,
2013-06-01 12:29:00,69.1,60.5,29.85,South,172,10.0,17.0,74,0.00,,---,0.23,VWS V14.01,2013-06-01 16:29:00,
2013-06-01 12:34:00,69.4,61.1,29.85,WSW,249,11.0,16.0,75,0.00,,---,0.23,VWS V14.01,2013-06-01 16:34:00,
2013-06-01 12:39:00,69.4,60.8,29.85,South,182,10.0,18.0,74,0.00,,---,0.23,VWS V14.01,2013-06-01 16:39:00,
2013-06-01 12:44:00,69.6,60.2,29.84,SW,222,11.0,18.0,72,0.00,,---,0.23,VWS V14.01,2013-06-01 16:44:00,
2013-06-01 12:49:00,69.8,60.0,29.84,SW,216,8.0,18.0,71,0.00,,---,0.23,VWS V14.01,2013-06-01 16:49:00,
2013-06-01 12:54:00,69.8,60.4,29.84,SW,230,5.0,18.0,72,0.00,,---,0.23,VWS V14.01,2013-06-01 16:54:00,
2013-06-01 12:59:00,69.8,60.4,29.84,SW,219,5.0,18.0,72,0.00,,---,0.23,VWS V14.01,2013-06-01 16:59:00,
2013-06-01 13:04:00,69.8,59.6,29.83,SSW,209,3.0,12.0,70,0.00,,---,0.23,VWS V14.01,2013-06-01 17:04:00,
2013-06-01 13:09:00,69.8,59.2,29.83,WSW,246,7.0,12.0,69,0.00,,---,0.23,VWS V14.01,2013-06-01 17:09:00,
2013-06-01 13:14:00,69.8,60.0,29.83,West,259,10.0,13.0,71,0.00,,---,0.23,VWS V14.01,2013-06-01 17:14:00,
2013-06-01 13:19:00,69.9,59.7,29.83,SW,218,4.0,13.0,70,0.00,,---,0.23,VWS V14.01,2013-06-01 17:19:00,
2013-06-01 13:24:00,70.1,60.3,29.82,SW,228,8.0,13.0,71,0.00,,---,0.23,VWS V14.01,2013-06-01 17:24:00,
2013-06-01 13:29:00,70.1,60.3,29.82,SW,225,3.0,13.0,71,0.00,,---,0.23,VWS V14.01,2013-06-01 17:29:00,
2013-06-01 13:34:00,70.8,60.9,29.82,SSW,202,1.0,8.0,71,0.00,,---,0.23,VWS V14.01,2013-06-01 17:34:00,
2013-06-01 13:39:00,71.8,61.1,29.81,SSW,207,5.0,9.0,69,0.00,,---,0.23,VWS V14.01,2013-06-01 17:39:00,
2013-06-01 13:44:00,72.3,60.7,29.81,SW,225,7.0,9.0,67,0.00,,---,0.23,VWS V14.01,2013-06-01 17:44:00,
2013-06-01 13:49:00,72.7,61.5,29.81,SSW,208,7.0,11.0,68,0.00,,---,0.23,VWS V14.01,2013-06-01 17:49:00,
2013-06-01 13:54:00,72.8,61.2,29.81,South,185,8.0,16.0,67,0.00,,---,0.23,VWS V14.01,2013-06-01 17:54:00,
2013-06-01 13:59:00,73.2,61.6,29.81,SSE,168,5.0,16.0,67,0.00,,---,0.23,VWS V14.01,2013-06-01 17:59:00,
2013-06-01 14:04:00,73.3,61.3,29.81,South,176,6.0,10.0,66,0.00,,---,0.23,VWS V14.01,2013-06-01 18:04:00,
2013-06-01 14:09:00,72.8,59.9,29.80,SE,134,7.0,11.0,64,0.00,,---,0.23,VWS V14.01,2013-06-01 18:09:00,
2013-06-01 14:14:00,73.0,60.5,29.81,South,190,6.0,13.0,65,0.00,,---,0.23,VWS V14.01,2013-06-01 18:14:00,
2013-06-01 14:19:00,73.3,60.8,29.81,SW,215,8.0,13.0,65,0.00,,---,0.23,VWS V14.01,2013-06-01 18:19:00,
2013-06-01 14:24:00,73.2,59.9,29.80,SW,221,7.0,13.0,63,0.00,,---,0.23,VWS V14.01,2013-06-01 18:24:00,
2013-06-01 14:29:00,73.3,60.4,29.80,South,169,4.0,13.0,64,0.00,,---,0.23,VWS V14.01,2013-06-01 18:29:00,
2013-06-01 14:34:00,73.3,60.4,29.80,WSW,237,8.0,13.0,64,0.00,,---,0.23,VWS V14.01,2013-06-01 18:34:00,
2013-06-01 14:39:00,73.3,60.4,29.80,South,188,8.0,13.0,64,0.00,,---,0.23,VWS V14.01,2013-06-01 18:39:00,
2013-06-01 14:44:00,73.5,61.0,29.79,SSW,200,3.0,13.0,65,0.00,,---,0.23,VWS V14.01,2013-06-01 18:44:00,
2013-06-01 14:49:00,73.7,61.2,29.79,South,184,10.0,13.0,65,0.00,,---,0.23,VWS V14.01,2013-06-01 18:49:00,
2013-06-01 14:54:00,74.0,60.6,29.79,SSW,211,7.0,15.0,63,0.00,,---,0.23,VWS V14.01,2013-06-01 18:54:00,
2013-06-01 14:59:00,74.4,60.1,29.79,SW,220,11.0,15.0,61,0.00,,---,0.23,VWS V14.01,2013-06-01 18:59:00,
2013-06-01 15:04:00,74.7,59.9,29.79,SSW,195,4.0,16.0,60,0.00,,---,0.23,VWS V14.01,2013-06-01 19:04:00,
2013-06-01 15:09:00,74.7,59.9,29.79,SSE,161,4.0,16.0,60,0.00,,---,0.23,VWS V14.01,2013-06-01 19:09:00,
2013-06-01 15:13:00,74.9,60.6,29.79,SSW,192,7.0,16.0,61,0.00,,---,0.23,VWS V14.01,2013-06-01 19:13:00,
2013-06-01 15:18:00,74.9,61.0,29.79,SSW,199,3.0,16.0,62,0.00,,---,0.23,VWS V14.01,2013-06-01 19:18:00,
2013-06-01 15:23:00,74.7,60.4,29.79,SW,233,4.0,16.0,61,0.00,,---,0.23,VWS V14.01,2013-06-01 19:23:00,
2013-06-01 15:28:00,74.6,60.3,29.78,SSW,198,12.0,16.0,61,0.00,,---,0.23,VWS V14.01,2013-06-01 19:28:00,
2013-06-01 15:33:00,74.6,60.7,29.77,South,169,2.0,10.0,62,0.00,,---,0.23,VWS V14.01,2013-06-01 19:33:00,
2013-06-01 15:38:00,74.6,61.2,29.77,SSE,162,6.0,10.0,63,0.00,,---,0.23,VWS V14.01,2013-06-01 19:38:00,
2013-06-01 15:43:00,74.9,60.1,29.76,South,177,11.0,15.0,60,0.00,,---,0.23,VWS V14.01,2013-06-01 19:43:00,
2013-06-01 15:48:00,75.4,60.6,29.75,SSE,165,21.0,21.0,60,0.00,,---,0.23,VWS V14.01,2013-06-01 19:48:00,
2013-06-01 15:53:00,75.6,60.3,29.74,SSE,166,10.0,21.0,59,0.00,,---,0.23,VWS V14.01,2013-06-01 19:53:00,
2013-06-01 15:58:00,75.3,60.0,29.73,SSE,165,12.0,21.0,59,0.00,,---,0.23,VWS V14.01,2013-06-01 19:58:00,
2013-06-01 16:03:00,74.9,59.6,29.74,South,175,7.0,15.0,59,0.00,,---,0.23,VWS V14.01,2013-06-01 20:03:00,
2013-06-01 16:08:00,74.6,59.8,29.74,SSE,161,8.0,15.0,60,0.00,,---,0.23,VWS V14.01,2013-06-01 20:08:00,
2013-06-01 16:13:00,74.4,59.6,29.75,SSE,163,5.0,22.0,60,0.00,,---,0.23,VWS V14.01,2013-06-01 20:13:00,
2013-06-01 16:18:00,74.2,59.9,29.74,South,172,6.0,22.0,61,0.00,,---,0.23,VWS V14.01,2013-06-01 20:18:00,
2013-06-01 16:23:00,74.2,60.8,29.74,SSW,193,7.0,22.0,63,0.00,,---,0.23,VWS V14.01,2013-06-01 20:23:00,
2013-06-01 16:28:00,74.0,60.2,29.74,South,184,8.0,22.0,62,0.00,,---,0.23,VWS V14.01,2013-06-01 20:28:00,
2013-06-01 16:33:00,73.9,60.1,29.75,South,186,4.0,14.0,62,0.00,,---,0.23,VWS V14.01,2013-06-01 20:33:00,
2013-06-01 16:38:00,73.7,59.9,29.74,SSE,157,9.0,16.0,62,0.00,,---,0.23,VWS V14.01,2013-06-01 20:38:00,
2013-06-01 16:43:00,73.5,60.6,29.73,SSE,157,7.0,18.0,64,0.00,,---,0.23,VWS V14.01,2013-06-01 20:43:00,
2013-06-01 16:48:00,73.3,60.4,29.74,South,186,6.0,18.0,64,0.00,,---,0.23,VWS V14.01,2013-06-01 20:48:00,
2013-06-01 16:53:00,73.2,60.3,29.74,SSW,204,7.0,18.0,64,0.00,,---,0.23,VWS V14.01,2013-06-01 20:53:00,
2013-06-01 16:58:00,73.2,60.7,29.74,SSE,151,5.0,18.0,65,0.00,,---,0.23,VWS V14.01,2013-06-01 20:58:00,
2013-06-01 17:03:00,73.2,61.2,29.73,South,173,2.0,12.0,66,0.00,,---,0.23,VWS V14.01,2013-06-01 21:03:00,
2013-06-01 17:08:00,73.5,61.5,29.74,South,184,2.0,12.0,66,0.00,,---,0.23,VWS V14.01,2013-06-01 21:08:00,
2013-06-01 17:13:00,73.5,61.0,29.74,SSW,200,7.0,13.0,65,0.00,,---,0.23,VWS V14.01,2013-06-01 21:13:00,
2013-06-01 17:18:00,73.7,60.8,29.74,SSW,202,7.0,13.0,64,0.00,,---,0.23,VWS V14.01,2013-06-01 21:18:00,
2013-06-01 17:23:00,73.9,61.0,29.74,South,178,3.0,13.0,64,0.00,,---,0.23,VWS V14.01,2013-06-01 21:23:00,
2013-06-01 17:28:00,73.9,61.0,29.74,SSW,209,2.0,13.0,64,0.00,,---,0.23,VWS V14.01,2013-06-01 21:28:00,
2013-06-01 17:34:00,73.9,61.0,29.74,South,187,2.0,7.0,64,0.00,,---,0.23,VWS V14.01,2013-06-01 21:34:00,
2013-06-01 17:39:00,73.9,61.0,29.75,SW,225,3.0,8.0,64,0.00,,---,0.23,VWS V14.01,2013-06-01 21:39:00,
2013-06-01 17:44:00,73.9,61.4,29.75,SSW,210,0.0,10.0,65,0.00,,---,0.23,VWS V14.01,2013-06-01 21:44:00,
2013-06-01 17:49:00,74.2,61.7,29.75,WSW,244,3.0,10.0,65,0.00,,---,0.23,VWS V14.01,2013-06-01 21:49:00,
2013-06-01 17:53:00,74.4,61.4,29.75,WSW,241,3.0,10.0,64,0.00,,---,0.23,VWS V14.01,2013-06-01 21:53:00,
2013-06-01 17:58:00,74.2,61.2,29.75,WSW,241,10.0,12.0,64,0.00,,---,0.23,VWS V14.01,2013-06-01 21:58:00,
2013-06-01 18:04:00,74.0,61.1,29.76,WSW,246,6.0,12.0,64,0.00,,---,0.23,VWS V14.01,2013-06-01 22:04:00,
2013-06-01 18:09:00,74.0,61.5,29.76,WSW,243,2.0,12.0,65,0.00,,---,0.23,VWS V14.01,2013-06-01 22:09:00,
2013-06-01 18:13:00,74.0,61.5,29.76,WSW,247,6.0,12.0,65,0.00,,---,0.23,VWS V14.01,2013-06-01 22:13:00,
2013-06-01 18:19:00,73.9,61.4,29.76,WSW,242,5.0,12.0,65,0.00,,---,0.23,VWS V14.01,2013-06-01 22:19:00,
2013-06-01 18:23:00,73.9,61.8,29.76,WSW,240,6.0,12.0,66,0.00,,---,0.23,VWS V14.01,2013-06-01 22:23:00,
2013-06-01 18:29:00,73.7,61.2,29.76,SW,234,5.0,13.0,65,0.00,,---,0.23,VWS V14.01,2013-06-01 22:29:00,
2013-06-01 18:34:00,73.5,61.5,29.75,SSW,211,2.0,9.0,66,0.00,,---,0.23,VWS V14.01,2013-06-01 22:34:00,
2013-06-01 18:39:00,73.5,61.9,29.75,SW,219,2.0,9.0,67,0.00,,---,0.23,VWS V14.01,2013-06-01 22:39:00,
2013-06-01 18:44:00,73.5,62.3,29.75,SW,226,0.0,9.0,68,0.00,,---,0.23,VWS V14.01,2013-06-01 22:44:00,
2013-06-01 18:49:00,73.3,62.1,29.75,SW,222,3.0,9.0,68,0.00,,---,0.23,VWS V14.01,2013-06-01 22:49:00,
2013-06-01 18:54:00,73.2,62.0,29.75,SSW,200,2.0,9.0,68,0.00,,---,0.23,VWS V14.01,2013-06-01 22:54:00,
2013-06-01 18:59:00,73.2,61.6,29.75,SW,236,2.0,9.0,67,0.00,,---,0.23,VWS V14.01,2013-06-01 22:59:00,
2013-06-01 19:04:00,73.2,62.0,29.75,SW,220,0.0,4.0,68,0.00,,---,0.23,VWS V14.01,2013-06-01 23:04:00,
2013-06-01 19:09:00,73.2,62.0,29.75,SW,232,1.0,6.0,68,0.00,,---,0.23,VWS V14.01,2013-06-01 23:09:00,
2013-06-01 19:14:00,73.3,61.7,29.75,SW,217,0.0,6.0,67,0.00,,---,0.23,VWS V14.01,2013-06-01 23:14:00,
2013-06-01 19:19:00,73.3,61.3,29.75,South,183,1.0,8.0,66,0.00,,---,0.23,VWS V14.01,2013-06-01 23:19:00,
2013-06-01 19:24:00,73.7,61.2,29.75,SSW,209,4.0,11.0,65,0.00,,---,0.23,VWS V14.01,2013-06-01 23:24:00,
2013-06-01 19:29:00,73.9,61.4,29.76,SW,218,4.0,11.0,65,0.00,,---,0.23,VWS V14.01,2013-06-01 23:29:00,
2013-06-01 19:34:00,73.7,61.2,29.76,SW,223,9.0,11.0,65,0.00,,---,0.23,VWS V14.01,2013-06-01 23:34:00,
2013-06-01 19:39:00,73.3,60.8,29.75,SSW,211,4.0,11.0,65,0.00,,---,0.23,VWS V14.01,2013-06-01 23:39:00,
2013-06-01 19:44:00,73.2,61.6,29.75,West,265,3.0,11.0,67,0.00,,---,0.23,VWS V14.01,2013-06-01 23:44:00,
2013-06-01 19:49:00,73.2,61.2,29.76,SW,227,2.0,15.0,66,0.00,,---,0.23,VWS V14.01,2013-06-01 23:49:00,
2013-06-01 19:54:00,73.3,60.8,29.75,SSW,213,4.0,15.0,65,0.00,,---,0.23,VWS V14.01,2013-06-01 23:54:00,
2013-06-01 19:59:00,73.3,60.4,29.76,WSW,244,3.0,15.0,64,0.00,,---,0.23,VWS V14.01,2013-06-01 23:59:00,
2013-06-01 20:04:00,73.2,60.3,29.75,SW,229,3.0,11.0,64,0.00,,---,0.23,VWS V14.01,2013-06-02 00:04:00,
2013-06-01 20:08:00,73.0,60.1,29.75,WSW,246,7.0,13.0,64,0.00,,---,0.23,VWS V14.01,2013-06-02 00:08:00,
2013-06-01 20:14:00,72.7,60.3,29.75,WSW,249,3.0,13.0,65,0.00,,---,0.23,VWS V14.01,2013-06-02 00:14:00,
2013-06-01 20:18:00,72.5,60.1,29.76,SW,232,7.0,13.0,65,0.00,,---,0.23,VWS V14.01,2013-06-02 00:18:00,
2013-06-01 20:23:00,72.3,59.9,29.76,WSW,245,5.0,13.0,65,0.00,,---,0.23,VWS V14.01,2013-06-02 00:23:00,
2013-06-01 20:28:00,72.1,60.1,29.76,SW,227,4.0,13.0,66,0.00,,---,0.23,VWS V14.01,2013-06-02 00:28:00,
2013-06-01 20:33:00,72.1,60.5,29.75,SW,229,2.0,8.0,67,0.00,,---,0.23,VWS V14.01,2013-06-02 00:33:00,
2013-06-01 20:38:00,72.0,60.5,29.76,South,173,3.0,11.0,67,0.00,,---,0.23,VWS V14.01,2013-06-02 00:38:00,
2013-06-01 20:43:00,71.8,60.3,29.76,SW,219,3.0,11.0,67,0.00,,---,0.23,VWS V14.01,2013-06-02 00:43:00,
2013-06-01 20:48:00,71.6,60.5,29.75,SW,230,5.0,11.0,68,0.00,,---,0.23,VWS V14.01,2013-06-02 00:48:00,
2013-06-01 20:53:00,71.5,60.4,29.75,SW,216,8.0,11.0,68,0.00,,---,0.23,VWS V14.01,2013-06-02 00:53:00,
2013-06-01 20:58:00,71.3,60.6,29.75,SW,221,4.0,11.0,69,0.00,,---,0.23,VWS V14.01,2013-06-02 00:58:00,
2013-06-01 21:03:00,71.1,60.8,29.75,SW,216,1.0,4.0,70,0.00,,---,0.23,VWS V14.01,2013-06-02 01:03:00,
2013-06-01 21:08:00,70.8,60.9,29.75,SW,221,2.0,5.0,71,0.00,,---,0.23,VWS V14.01,2013-06-02 01:08:00,
2013-06-01 21:13:00,70.6,60.8,29.75,SSW,205,2.0,5.0,71,0.00,,---,0.23,VWS V14.01,2013-06-02 01:13:00,
2013-06-01 21:18:00,70.4,60.6,29.75,SW,220,3.0,5.0,71,0.00,,---,0.23,VWS V14.01,2013-06-02 01:18:00,
2013-06-01 21:23:00,70.3,60.5,29.75,SW,226,1.0,7.0,71,0.00,,---,0.23,VWS V14.01,2013-06-02 01:23:00,
2013-06-01 21:28:00,70.1,60.7,29.75,SW,224,3.0,7.0,72,0.00,,---,0.23,VWS V14.01,2013-06-02 01:28:00,
2013-06-01 21:33:00,69.9,60.5,29.76,SW,231,6.0,7.0,72,0.00,,---,0.23,VWS V14.01,2013-06-02 01:33:00,
2013-06-01 21:38:00,69.9,60.9,29.76,WSW,238,6.0,7.0,73,0.00,,---,0.23,VWS V14.01,2013-06-02 01:38:00,
2013-06-01 21:43:00,69.8,60.8,29.76,WSW,242,4.0,9.0,73,0.00,,---,0.23,VWS V14.01,2013-06-02 01:43:00,
2013-06-01 21:48:00,69.6,61.0,29.76,SW,228,7.0,9.0,74,0.00,,---,0.23,VWS V14.01,2013-06-02 01:48:00,
2013-06-01 21:53:00,69.4,60.8,29.76,SW,236,6.0,9.0,74,0.00,,---,0.23,VWS V14.01,2013-06-02 01:53:00,
2013-06-01 21:58:00,69.3,61.0,29.76,SW,234,5.0,9.0,75,0.00,,---,0.23,VWS V14.01,2013-06-02 01:58:00,
2013-06-01 22:03:00,69.1,60.8,29.77,SW,221,4.0,8.0,75,0.00,,---,0.23,VWS V14.01,2013-06-02 02:03:00,
2013-06-01 22:08:00,69.1,60.8,29.77,SW,230,1.0,10.0,75,0.00,,---,0.23,VWS V14.01,2013-06-02 02:08:00,
2013-06-01 22:13:00,68.9,61.0,29.77,SSW,213,2.0,10.0,76,0.00,,---,0.23,VWS V14.01,2013-06-02 02:13:00,
2013-06-01 22:18:00,68.8,60.9,29.77,SSW,202,1.0,13.0,76,0.00,,---,0.23,VWS V14.01,2013-06-02 02:18:00,
2013-06-01 22:23:00,68.8,60.6,29.77,SW,215,8.0,13.0,75,0.00,,---,0.23,VWS V14.01,2013-06-02 02:23:00,
2013-06-01 22:28:00,68.6,60.4,29.77,SW,232,5.0,13.0,75,0.00,,---,0.23,VWS V14.01,2013-06-02 02:28:00,
2013-06-01 22:33:00,68.6,60.7,29.77,SSW,212,4.0,9.0,76,0.00,,---,0.23,VWS V14.01,2013-06-02 02:33:00,
2013-06-01 22:38:00,68.4,60.5,29.77,SSW,200,5.0,10.0,76,0.00,,---,0.23,VWS V14.01,2013-06-02 02:38:00,
2013-06-01 22:43:00,68.6,60.7,29.78,SW,220,4.0,10.0,76,0.00,,---,0.23,VWS V14.01,2013-06-02 02:43:00,
2013-06-01 22:48:00,68.6,60.7,29.78,SW,216,6.0,12.0,76,0.00,,---,0.23,VWS V14.01,2013-06-02 02:48:00,
2013-06-01 22:53:00,68.6,60.7,29.78,SW,227,6.0,12.0,76,0.00,,---,0.23,VWS V14.01,2013-06-02 02:53:00,
2013-06-01 22:58:00,68.6,60.4,29.78,SSW,203,8.0,12.0,75,0.00,,---,0.23,VWS V14.01,2013-06-02 02:58:00,
2013-06-01 23:03:00,68.6,60.4,29.78,SSW,200,6.0,8.0,75,0.00,,---,0.23,VWS V14.01,2013-06-02 03:03:00,
2013-06-01 23:08:00,68.6,60.4,29.78,WSW,239,8.0,11.0,75,0.00,,---,0.23,VWS V14.01,2013-06-02 03:08:00,
2013-06-01 23:13:00,68.4,60.2,29.78,WSW,238,5.0,11.0,75,0.00,,---,0.23,VWS V14.01,2013-06-02 03:13:00,
2013-06-01 23:18:00,68.4,60.2,29.78,SSW,198,5.0,11.0,75,0.00,,---,0.23,VWS V14.01,2013-06-02 03:18:00,
2013-06-01 23:23:00,68.4,60.2,29.79,SSW,198,7.0,11.0,75,0.00,,---,0.23,VWS V14.01,2013-06-02 03:23:00,
2013-06-01 23:28:00,68.4,60.2,29.78,South,187,2.0,11.0,75,0.00,,---,0.23,VWS V14.01,2013-06-02 03:28:00,
2013-06-01 23:33:00,68.4,60.5,29.79,SW,222,5.0,7.0,76,0.00,,---,0.23,VWS V14.01,2013-06-02 03:33:00,
2013-06-01 23:38:00,68.3,60.8,29.79,SW,234,3.0,8.0,77,0.00,,---,0.23,VWS V14.01,2013-06-02 03:38:00,
2013-06-01 23:43:00,68.3,61.2,29.79,SSW,209,4.0,8.0,78,0.00,,---,0.23,VWS V14.01,2013-06-02 03:43:00,
2013-06-01 23:48:00,68.1,61.0,29.79,South,190,2.0,9.0,78,0.00,,---,0.23,VWS V14.01,2013-06-02 03:48:00,
2013-06-01 23:53:00,67.8,61.1,29.79,SW,228,1.0,9.0,79,0.00,,---,0.23,VWS V14.01,2013-06-02 03:53:00,
2013-06-01 23:58:00,67.6,61.2,29.79,SSW,206,4.0,9.0,80,0.00,,---,0.23,VWS V14.01,2013-06-02 03:58:00,